createdAt,value
2018-05-11T00:02:15.272Z,95309.92
2018-05-11T00:05:19.570Z,95311.52
2018-05-11T00:08:22.840Z,95320.55
2018-05-11T00:11:26.262Z,95316.48
2018-05-11T00:14:29.592Z,95317.53
2018-05-11T00:17:32.865Z,95312.22
2018-05-11T00:20:36.112Z,95316.16
2018-05-11T00:23:39.384Z,95321.09
2018-05-11T00:26:42.670Z,95318.28
2018-05-11T00:29:45.921Z,95316.95
2018-05-11T00:32:49.193Z,95315.04
2018-05-11T00:35:52.502Z,95322.20
2018-05-11T00:38:55.779Z,95317.04
2018-05-11T00:41:59.037Z,95316.09
2018-05-11T00:45:03.085Z,95318.92
2018-05-11T00:48:07.103Z,95317.98
2018-05-11T00:51:11.305Z,95316.69
2018-05-11T00:54:14.384Z,95317.35
2018-05-11T00:57:17.698Z,95319.19
2018-05-11T01:00:21.714Z,95324.06
2018-05-11T01:03:25.733Z,95325.05
2018-05-11T01:06:29.778Z,95325.25
2018-05-11T01:09:33.070Z,95321.02
2018-05-11T01:12:36.350Z,95317.04
2018-05-11T01:15:40.361Z,95319.58
2018-05-11T01:18:44.379Z,95319.97
2018-05-11T01:21:48.416Z,95320.98
2018-05-11T01:24:51.674Z,95323.20
2018-05-11T01:27:54.929Z,95321.64
2018-05-11T01:30:58.189Z,95320.70
2018-05-11T01:34:02.228Z,95323.79
2018-05-11T01:37:05.561Z,95317.15
2018-05-11T01:40:08.823Z,95322.89
2018-05-11T01:43:12.214Z,95322.34
2018-05-11T01:46:15.528Z,95319.30
2018-05-11T01:49:18.780Z,95321.25
2018-05-11T01:52:22.830Z,95318.63
2018-05-11T01:55:26.086Z,95313.95
2018-05-11T01:58:38.692Z,95313.98
2018-05-11T02:01:42.574Z,95315.47
2018-05-11T02:04:45.832Z,95311.48
2018-05-11T02:07:49.855Z,95316.88
2018-05-11T02:10:53.878Z,95311.17
2018-05-11T02:13:57.130Z,95311.48
2018-05-11T02:17:00.556Z,95312.23
2018-05-11T02:20:04.569Z,95308.31
2018-05-11T02:23:08.587Z,95310.11
2018-05-11T02:26:12.621Z,95306.57
2018-05-11T02:29:15.885Z,95307.78
2018-05-11T02:32:19.937Z,95313.71
2018-05-11T02:35:24.227Z,95306.67
2018-05-11T02:38:28.351Z,95308.74
2018-05-11T02:41:32.382Z,95308.93
2018-05-11T02:44:35.666Z,95311.92
2018-05-11T02:47:38.938Z,95305.00
2018-05-11T02:50:42.282Z,95289.91
2018-05-11T02:53:45.555Z,95293.20
2018-05-11T02:56:49.580Z,95288.61
2018-05-11T02:59:52.859Z,95297.45
2018-05-11T03:02:56.884Z,95296.44
2018-05-11T03:06:00.933Z,95294.23
2018-05-11T03:09:04.189Z,95291.27
2018-05-11T03:12:07.453Z,95292.71
2018-05-11T03:15:10.739Z,95284.92
2018-05-11T03:18:14.025Z,95287.55
2018-05-11T03:21:17.357Z,95283.09
2018-05-11T03:24:21.342Z,95287.01
2018-05-11T03:27:24.605Z,95284.02
2018-05-11T03:30:28.625Z,95285.97
2018-05-11T03:33:31.874Z,95289.92
2018-05-11T03:36:35.134Z,95285.69
2018-05-11T03:39:39.154Z,95283.86
2018-05-11T03:42:43.182Z,95283.02
2018-05-11T03:45:47.367Z,95275.89
2018-05-11T03:48:50.694Z,95271.53
2018-05-11T03:51:54.717Z,95277.55
2018-05-11T03:54:57.961Z,95279.30
2018-05-11T03:58:01.477Z,95276.61
2018-05-11T04:04:51.362Z,95276.03
2018-05-11T04:08:12.451Z,95277.86
2018-05-11T04:11:16.472Z,95281.69
2018-05-11T04:14:19.730Z,95283.23
2018-05-11T04:17:22.987Z,95282.72
2018-05-11T04:20:26.257Z,95274.73
2018-05-11T04:23:30.346Z,95276.23
2018-05-11T04:26:33.840Z,95286.00
2018-05-11T04:29:37.084Z,95285.45
2018-05-11T04:32:40.837Z,95289.48
2018-05-11T04:35:44.081Z,95293.34
2018-05-11T04:38:48.150Z,95296.07
2018-05-11T04:41:51.447Z,95294.69
2018-05-11T04:44:54.690Z,95295.11
2018-05-11T04:47:58.711Z,95299.98
2018-05-11T04:51:02.746Z,95301.64
2018-05-11T04:54:06.038Z,95301.02
2018-05-11T04:57:09.297Z,95298.03
2018-05-11T05:00:12.575Z,95302.12
2018-05-11T05:03:16.000Z,95302.50
2018-05-11T05:06:19.253Z,95302.73
2018-05-11T05:09:22.781Z,95300.80
2018-05-11T05:12:26.057Z,95296.25
2018-05-11T05:15:29.304Z,95302.72
2018-05-11T05:18:32.553Z,95298.45
2018-05-11T05:21:36.671Z,95293.81
2018-05-11T05:24:40.707Z,95297.74
2018-05-11T05:27:43.976Z,95301.02
2018-05-11T05:30:48.008Z,95305.30
2018-05-11T05:33:52.022Z,95304.66
2018-05-11T05:36:56.079Z,95302.28
2018-05-11T05:39:59.511Z,95304.28
2018-05-11T05:43:02.763Z,95304.33
2018-05-11T05:46:06.234Z,95297.52
2018-05-11T05:49:09.482Z,95301.70
2018-05-11T05:52:12.743Z,95301.27
2018-05-11T05:55:16.835Z,95301.20
2018-05-11T05:58:20.148Z,95295.81
2018-05-11T06:01:23.400Z,95305.17
2018-05-11T06:04:26.683Z,95302.33
2018-05-11T06:07:29.946Z,95301.16
2018-05-11T06:10:33.208Z,95295.07
2018-05-11T06:13:36.461Z,95294.76
2018-05-11T06:16:39.737Z,95290.76
2018-05-11T06:19:43.877Z,95301.41
2018-05-11T06:22:47.146Z,95294.48
2018-05-11T06:25:50.410Z,95295.02
2018-05-11T06:28:54.446Z,95292.14
2018-05-11T06:31:57.703Z,95294.31
2018-05-11T06:35:01.042Z,95290.13
2018-05-11T06:38:05.106Z,95296.59
2018-05-11T06:41:08.450Z,95290.66
2018-05-11T06:44:12.453Z,95297.47
2018-05-11T06:47:15.743Z,95297.27
2018-05-11T06:50:19.034Z,95304.95
2018-05-11T06:53:22.301Z,95308.18
2018-05-11T06:56:25.562Z,95301.31
2018-05-11T06:59:29.582Z,95296.84
2018-05-11T07:02:32.882Z,95297.23
2018-05-11T07:05:36.937Z,95297.36
2018-05-11T07:08:40.313Z,95293.34
2018-05-11T07:11:43.569Z,95290.83
2018-05-11T07:14:46.826Z,95289.34
2018-05-11T07:17:50.112Z,95283.22
2018-05-11T07:20:54.235Z,95286.83
2018-05-11T07:23:57.489Z,95271.02
2018-05-11T07:27:00.777Z,95273.67
2018-05-11T07:30:04.058Z,95268.59
2018-05-11T07:33:07.313Z,95275.63
2018-05-11T07:36:11.351Z,95276.81
2018-05-11T07:39:14.608Z,95277.91
2018-05-11T07:42:17.869Z,95276.37
2018-05-11T07:45:21.251Z,95271.78
2018-05-11T07:48:25.277Z,95272.08
2018-05-11T07:51:28.566Z,95269.53
2018-05-11T07:54:32.036Z,95269.16
2018-05-11T07:57:35.353Z,95269.37
2018-05-11T08:00:39.388Z,95263.86
2018-05-11T08:03:42.651Z,95261.03
2018-05-11T08:06:45.909Z,95255.47
2018-05-11T08:09:49.174Z,95254.67
2018-05-11T08:12:53.361Z,95245.63
2018-05-11T08:15:56.663Z,95234.53
2018-05-11T08:18:59.915Z,95242.82
2018-05-11T08:22:03.186Z,95239.55
2018-05-11T08:25:07.311Z,95247.54
2018-05-11T08:28:11.336Z,95237.53
2018-05-11T08:31:15.365Z,95230.88
2018-05-11T08:34:18.617Z,95230.11
2018-05-11T08:37:21.877Z,95227.26
2018-05-11T08:40:25.162Z,95223.67
2018-05-11T08:43:28.410Z,95217.31
2018-05-11T08:46:31.706Z,95215.50
2018-05-11T08:49:34.954Z,95212.66
2018-05-11T08:52:39.178Z,95214.91
2018-05-11T08:55:43.217Z,95212.77
2018-05-11T08:58:47.219Z,95217.10
2018-05-11T09:01:51.346Z,95206.45
2018-05-11T09:04:55.362Z,95203.32
2018-05-11T09:07:58.635Z,95202.02
2018-05-11T09:11:01.921Z,95192.47
2018-05-11T09:14:05.180Z,95186.05
2018-05-11T09:17:08.452Z,95188.16
2018-05-11T09:20:11.758Z,95193.95
2018-05-11T09:23:15.778Z,95192.27
2018-05-11T09:26:19.048Z,95192.13
2018-05-11T09:29:22.303Z,95187.24
2018-05-11T09:32:25.687Z,95184.03
2018-05-11T09:35:28.935Z,95181.58
2018-05-11T09:38:33.123Z,95180.91
2018-05-11T09:41:36.406Z,95173.91
2018-05-11T09:44:39.666Z,95166.55
2018-05-11T09:47:42.930Z,95168.56
2018-05-11T09:50:47.461Z,95157.97
2018-05-11T09:53:50.709Z,95157.51
2018-05-11T09:56:53.957Z,95152.84
2018-05-11T09:59:57.222Z,95159.64
2018-05-11T10:03:00.488Z,95153.77
2018-05-11T10:06:03.773Z,95152.78
2018-05-11T10:09:07.034Z,95147.34
2018-05-11T10:12:10.299Z,95142.27
2018-05-11T10:15:13.617Z,95136.09
2018-05-11T10:18:17.028Z,95131.18
2018-05-11T10:21:20.297Z,95137.94
2018-05-11T10:24:23.779Z,95134.12
2018-05-11T10:27:27.796Z,95124.53
2018-05-11T10:30:31.822Z,95120.28
2018-05-11T10:33:35.073Z,95126.95
2018-05-11T10:36:38.337Z,95126.92
2018-05-11T10:39:41.634Z,95120.14
2018-05-11T10:42:45.216Z,95115.08
2018-05-11T10:45:49.351Z,95121.16
2018-05-11T10:48:52.696Z,95114.69
2018-05-11T10:51:55.893Z,95111.96
2018-05-11T10:54:59.150Z,95111.50
2018-05-11T10:58:02.473Z,95099.20
2018-05-11T11:01:06.487Z,95101.52
2018-05-11T11:04:09.833Z,95099.15
2018-05-11T11:07:13.228Z,95089.66
2018-05-11T11:10:16.524Z,95085.80
2018-05-11T11:13:19.841Z,95081.94
2018-05-11T11:16:23.516Z,95078.42
2018-05-11T11:19:26.802Z,95072.44
2018-05-11T11:22:30.053Z,95067.72
2018-05-11T11:25:33.302Z,95062.55
2018-05-11T11:28:36.573Z,95056.58
2018-05-11T11:31:40.734Z,95057.97
2018-05-11T11:34:44.089Z,95053.67
2018-05-11T11:37:48.056Z,95042.78
2018-05-11T11:40:52.139Z,95044.20
2018-05-11T11:43:56.267Z,95047.92
2018-05-11T11:47:00.305Z,95051.83
2018-05-11T11:50:03.592Z,95043.09
2018-05-11T11:53:06.850Z,95038.48
2018-05-11T11:56:10.371Z,95042.36
2018-05-11T11:59:14.634Z,95046.19
2018-05-11T12:02:17.889Z,95036.95
2018-05-11T12:05:21.918Z,95035.62
2018-05-11T12:08:26.760Z,95031.78
2018-05-11T12:11:30.810Z,95031.37
2018-05-11T12:14:34.061Z,95036.39
2018-05-11T12:17:38.932Z,95036.00
2018-05-11T12:20:42.192Z,95025.21
2018-05-11T12:23:45.465Z,95024.86
2018-05-11T12:26:48.728Z,95023.49
2018-05-11T12:29:51.985Z,95028.25
2018-05-11T12:32:55.362Z,95014.03
2018-05-11T12:35:58.676Z,95014.64
2018-05-11T12:39:02.705Z,95008.87
2018-05-11T12:42:05.978Z,95004.20
2018-05-11T12:45:09.228Z,95002.72
2018-05-11T12:48:13.250Z,95000.59
2018-05-11T12:51:17.269Z,95009.63
2018-05-11T12:54:21.297Z,94999.05
2018-05-11T12:57:25.330Z,94993.87
2018-05-11T13:00:28.625Z,94991.14
2018-05-11T13:03:33.384Z,94989.19
2018-05-11T13:06:36.685Z,94984.59
2018-05-11T13:09:39.954Z,94985.14
2018-05-11T13:12:43.984Z,94974.41
2018-05-11T13:15:48.017Z,94985.70
2018-05-11T13:18:51.300Z,94981.09
2018-05-11T13:21:56.274Z,94973.98
2018-05-11T13:25:09.872Z,94974.38
2018-05-11T13:28:13.571Z,94973.83
2018-05-11T13:31:16.980Z,94964.13
2018-05-11T13:34:21.043Z,94961.66
2018-05-11T13:37:24.289Z,94957.19
2018-05-11T13:40:28.597Z,94956.69
2018-05-11T13:43:32.162Z,94951.55
2018-05-11T13:46:35.429Z,94952.59
2018-05-11T13:49:38.722Z,94947.72
2018-05-11T13:52:42.753Z,94949.67
2018-05-11T13:55:47.523Z,94946.83
2018-05-11T13:58:50.791Z,94947.98
2018-05-11T14:01:54.834Z,94939.55
2018-05-11T14:04:58.096Z,94941.28
2018-05-11T14:08:01.389Z,94937.97
2018-05-11T14:11:04.741Z,94932.91
2018-05-11T14:14:07.995Z,94929.42
2018-05-11T14:17:12.446Z,94933.81
2018-05-11T14:20:16.731Z,94941.06
2018-05-11T14:23:20.059Z,94933.13
2018-05-11T14:26:23.320Z,94928.32
2018-05-11T14:29:26.629Z,94936.16
2018-05-11T14:32:29.957Z,94937.31
2018-05-11T14:35:33.230Z,94929.11
2018-05-11T14:38:36.550Z,94925.41
2018-05-11T14:41:39.812Z,94929.61
2018-05-11T14:44:43.123Z,94925.72
2018-05-11T14:47:46.402Z,94929.16
2018-05-11T14:50:50.442Z,94924.08
2018-05-11T14:53:54.447Z,94932.08
2018-05-11T14:56:58.541Z,94928.06
2018-05-11T15:00:01.829Z,94923.33
2018-05-11T15:03:06.163Z,94931.83
2018-05-11T15:06:09.437Z,94925.11
2018-05-11T15:09:13.061Z,94923.14
2018-05-11T15:12:16.329Z,94915.27
2018-05-11T15:15:19.580Z,94912.33
2018-05-11T15:18:23.042Z,94920.88
2018-05-11T15:21:26.336Z,94917.94
2018-05-11T15:24:29.729Z,94915.43
2018-05-11T15:27:32.995Z,94907.06
2018-05-11T15:30:36.293Z,94912.02
2018-05-11T15:33:39.575Z,94913.08
2018-05-11T15:36:42.837Z,94909.72
2018-05-11T15:39:46.963Z,94907.88
2018-05-11T15:42:51.021Z,94907.77
2018-05-11T15:45:54.300Z,94911.08
2018-05-11T15:48:57.549Z,94912.01
2018-05-11T15:52:00.853Z,94913.66
2018-05-11T15:55:04.143Z,94910.66
2018-05-11T15:58:07.414Z,94912.66
2018-05-11T16:01:10.731Z,94918.17
2018-05-11T16:04:14.020Z,94913.62
2018-05-11T16:07:18.050Z,94913.72
2018-05-11T16:10:21.358Z,94914.58
2018-05-11T16:13:24.732Z,94911.34
2018-05-11T16:16:28.754Z,94903.86
2018-05-11T16:19:32.793Z,94895.57
2018-05-11T16:22:36.081Z,94899.75
2018-05-11T16:25:40.921Z,94901.02
2018-05-11T16:28:45.185Z,94904.53
2018-05-11T16:31:48.460Z,94905.56
2018-05-11T16:34:52.595Z,94905.14
2018-05-11T16:37:56.764Z,94899.78
2018-05-11T16:41:00.038Z,94901.48
2018-05-11T16:44:03.307Z,94902.89
2018-05-11T16:47:07.342Z,94905.80
2018-05-11T16:50:11.562Z,94896.98
2018-05-11T16:53:14.739Z,94899.39
2018-05-11T16:56:18.001Z,94901.97
2018-05-11T16:59:21.293Z,94901.61
2018-05-11T17:02:24.558Z,94907.17
2018-05-11T17:05:28.677Z,94904.47
2018-05-11T17:08:31.997Z,94900.19
2018-05-11T17:11:35.263Z,94902.89
2018-05-11T17:14:38.578Z,94906.16
2018-05-11T17:17:41.834Z,94899.68
2018-05-11T17:20:45.097Z,94902.74
2018-05-11T17:23:51.144Z,94907.35
2018-05-11T17:26:54.505Z,94907.61
2018-05-11T17:29:57.775Z,94900.41
2018-05-11T17:33:02.960Z,94909.37
2018-05-11T17:36:06.259Z,94904.98
2018-05-11T17:39:09.526Z,94908.70
2018-05-11T17:42:12.860Z,94910.63
2018-05-11T17:45:16.142Z,94919.92
2018-05-11T17:48:19.406Z,94916.11
2018-05-11T17:51:22.753Z,94919.75
2018-05-11T17:54:26.016Z,94925.73
2018-05-11T17:57:29.331Z,94929.41
2018-05-11T18:00:34.736Z,94934.02
2018-05-11T18:03:38.003Z,94930.95
2018-05-11T18:06:41.398Z,94935.58
2018-05-11T18:09:44.601Z,94934.00
2018-05-11T18:12:48.476Z,94935.52
2018-05-11T18:15:52.539Z,94934.77
2018-05-11T18:18:55.817Z,94937.44
2018-05-11T18:21:59.094Z,94939.72
2018-05-11T18:25:02.357Z,94943.54
2018-05-11T18:28:05.631Z,94936.79
2018-05-11T18:31:08.885Z,94939.44
2018-05-11T18:34:12.166Z,94935.20
2018-05-11T18:37:15.441Z,94938.97
2018-05-11T18:40:18.706Z,94939.69
2018-05-11T18:43:21.993Z,94945.38
2018-05-11T18:46:25.249Z,94944.19
2018-05-11T18:49:28.508Z,94941.67
2018-05-11T18:52:31.783Z,94935.67
2018-05-11T18:55:35.829Z,94946.54
2018-05-11T18:58:39.081Z,94948.58
2018-05-11T19:01:42.493Z,94946.95
2018-05-11T19:04:46.171Z,94952.84
2018-05-11T19:07:49.908Z,94953.48
2018-05-11T19:10:53.290Z,94954.19
2018-05-11T19:13:56.617Z,94960.48
2018-05-11T19:16:59.930Z,94966.55
2018-05-11T19:20:03.284Z,94969.53
2018-05-11T19:23:07.307Z,94971.00
2018-05-11T19:26:11.423Z,94974.92
2018-05-11T19:29:15.465Z,94982.56
2018-05-11T19:32:19.483Z,94986.92
2018-05-11T19:35:23.130Z,94988.21
2018-05-11T19:38:26.545Z,94994.06
2018-05-11T19:41:29.864Z,94996.39
2018-05-11T19:44:33.356Z,94996.84
2018-05-11T19:47:36.639Z,95001.16
2018-05-11T19:50:39.914Z,95005.12
2018-05-11T19:53:43.593Z,94994.73
2018-05-11T19:56:47.785Z,94994.42
2018-05-11T19:59:51.163Z,95003.59
2018-05-11T20:02:55.191Z,95011.85
2018-05-11T20:05:59.248Z,95004.31
2018-05-11T20:09:02.501Z,95009.18
2018-05-11T20:12:06.619Z,95007.49
2018-05-11T20:15:10.670Z,95007.56
2018-05-11T20:18:14.004Z,95010.77
2018-05-11T20:21:17.453Z,95007.23
2018-05-11T20:24:21.539Z,95010.76
2018-05-11T20:27:24.812Z,95015.26
2018-05-11T20:30:28.072Z,95011.77
2018-05-11T20:33:32.152Z,95015.81
2018-05-11T20:36:35.403Z,95012.84
2018-05-11T20:39:39.114Z,95013.33
2018-05-11T20:42:42.421Z,95012.18
2018-05-11T20:45:47.567Z,95012.95
2018-05-11T20:48:50.821Z,95012.88
2018-05-11T20:51:54.205Z,95016.88
2018-05-11T20:54:57.499Z,95014.81
2018-05-11T20:58:00.819Z,95020.94
2018-05-11T21:01:04.072Z,95010.80
2018-05-11T21:04:07.347Z,95013.21
2018-05-11T21:07:10.609Z,95021.14
2018-05-11T21:10:14.793Z,95022.73
2018-05-11T21:13:19.625Z,95021.30
2018-05-11T21:16:23.078Z,95027.72
2018-05-11T21:19:27.177Z,95024.52
2018-05-11T21:22:32.972Z,95025.58
2018-05-11T21:25:39.254Z,95022.80
2018-05-11T21:28:43.524Z,95025.36
2018-05-11T21:31:46.852Z,95019.80
2018-05-11T21:34:50.409Z,95025.20
2018-05-11T21:37:53.687Z,95025.59
2018-05-11T21:40:56.965Z,95024.81
2018-05-11T21:44:02.338Z,95028.09
2018-05-11T21:47:11.150Z,95028.50
2018-05-11T21:50:15.330Z,95031.66
2018-05-11T21:53:18.825Z,95026.55
2018-05-11T21:56:22.116Z,95027.30
2018-05-11T21:59:25.471Z,95035.95
2018-05-11T22:02:28.741Z,95029.24
2018-05-11T22:05:32.020Z,95030.13
2018-05-11T22:08:35.344Z,95033.30
2018-05-11T22:11:38.606Z,95030.51
2018-05-11T22:14:41.885Z,95025.79
2018-05-11T22:17:45.911Z,95025.08
2018-05-11T22:20:50.025Z,95031.24
2018-05-11T22:23:54.055Z,95038.06
2018-05-11T22:26:58.074Z,95031.46
2018-05-11T22:30:01.332Z,95036.16
2018-05-11T22:33:05.374Z,95036.01
2018-05-11T22:36:09.411Z,95039.33
2018-05-11T22:42:22.145Z,95034.67
2018-05-11T22:45:25.430Z,95037.87
2018-05-11T22:48:28.743Z,95041.14
2018-05-11T22:51:32.083Z,95049.53
2018-05-11T22:54:35.588Z,95047.54
2018-05-11T22:57:38.923Z,95051.12
2018-05-11T23:00:42.311Z,95042.36
2018-05-11T23:03:46.535Z,95041.01
2018-05-11T23:06:49.713Z,95029.20
2018-05-11T23:09:53.001Z,95035.20
2018-05-11T23:12:56.329Z,95036.20
2018-05-11T23:16:00.395Z,95034.98
2018-05-11T23:19:03.664Z,95031.34
2018-05-11T23:22:06.921Z,95032.17
2018-05-11T23:25:10.174Z,95029.48
2018-05-11T23:28:13.424Z,95027.56
2018-05-11T23:31:17.461Z,95025.84
2018-05-11T23:34:20.730Z,95020.86
2018-05-11T23:37:24.014Z,95022.27
2018-05-11T23:40:27.271Z,95014.16
2018-05-11T23:43:30.533Z,95008.50
2018-05-11T23:46:34.012Z,95010.87
2018-05-11T23:49:37.268Z,95012.09
2018-05-11T23:52:40.757Z,95007.04
2018-05-11T23:55:44.028Z,95007.65
2018-05-11T23:58:47.375Z,95005.79
